Time;durP1;ratioP1;P1;durP2;ratioP2;P2;SDS_P1;SDS_P2;PMS_P1;PMS_P2;Temp;Humidity;BMP_temperature;BMP_pressure;BME280_temperature;BME280_humidity;BME280_pressure;Samples;Min_cycle;Max_cycle;Signal;HPM_P1;HPM_P2
2023/07/29 00:02:18;;;;;;;6.90;4.80;;;;;;;16.49;80.33;99620.10;127197;1281;115248;-67
2023/07/29 00:05:33;;;;;;;5.80;5.00;;;;;;;16.48;80.59;99619.48;127315;1281;355634;-67
2023/07/29 00:09:02;;;;;;;6.80;5.70;;;;;;;16.45;80.57;99613.25;127366;1302;115269;-66
2023/07/29 00:12:45;;;;;;;9.40;6.50;;;;;;;16.43;80.62;99612.40;127559;1294;127101;-67
2023/07/29 00:16:38;;;;;;;5.90;5.00;;;;;;;16.39;80.73;99607.62;127422;1289;115453;-68
2023/07/29 00:20:11;;;;;;;5.30;4.80;;;;;;;16.36;80.95;99612.21;127908;1283;114864;-67
2023/07/29 00:24:04;;;;;;;;;;;;;;;;;;;;;
2023/07/29 00:27:29;;;;;;;;;;;;;;;;;;;;;
2023/07/29 00:30:43;;;;;;;5.30;4.80;;;;;;;16.28;81.24;99621.02;127437;1286;127742;-70
2023/07/29 00:34:29;;;;;;;7.70;4.30;;;;;;;16.28;82.38;99624.98;128471;1273;115272;-68
2023/07/29 00:38:12;;;;;;;5.70;4.50;;;;;;;16.30;82.05;99623.34;127863;1274;114927;-71
2023/07/29 00:42:06;;;;;;;8.40;5.10;;;;;;;16.24;81.86;99624.77;128089;1277;115349;-72
2023/07/29 00:46:00;;;;;;;;;;;;;;;;;;;;;
2023/07/29 00:49:54;;;;;;;8.80;5.90;;;;;;;16.14;81.97;99626.11;127323;1283;127514;-71
2023/07/29 00:57:49;;;;;;;5.40;4.40;;;;;;;16.08;81.84;99627.34;126651;1291;636096;-72
2023/07/29 01:01:39;;;;;;;5.60;4.60;;;;;;;16.01;81.88;99630.46;128460;1273;128912;-65
2023/07/29 01:05:33;;;;;;;;;;;;;;;;;;;;;
2023/07/29 01:09:49;;;;;;;5.00;4.10;;;;;;;15.90;82.13;99627.89;127528;1284;115092;-77
2023/07/29 01:13:59;;;;;;;6.00;5.20;;;;;;;15.86;82.29;99623.23;122814;1290;114929;-76
2023/07/29 01:18:04;;;;;;;5.70;5.20;;;;;;;15.80;82.23;99620.81;126674;1293;115551;-71
2023/07/29 01:22:05;;;;;;;5.70;4.90;;;;;;;15.75;82.29;99623.15;125834;1301;114820;-74
2023/07/29 01:26:06;;;;;;;9.20;6.00;;;;;;;15.70;82.55;99615.10;125280;1321;129826;-77
2023/07/29 01:30:08;;;;;;;5.80;4.50;;;;;;;15.68;82.90;99616.35;124668;1324;114824;-76
2023/07/29 01:38:13;;;;;;;;;;;;;;;;;;;;;
2023/07/29 01:42:34;;;;;;;6.00;4.50;;;;;;;15.59;82.82;99620.32;126578;1295;636288;-79
2023/07/29 01:46:37;;;;;;;6.80;5.20;;;;;;;15.53;82.77;99625.33;129047;1276;128670;-74
2023/07/29 01:50:38;;;;;;;;;;;;;;;;;;;;;
2023/07/29 01:54:42;;;;;;;11.30;5.00;;;;;;;15.45;83.18;99624.14;123864;1287;5482391;-77
2023/07/29 01:58:46;;;;;;;9.70;4.70;;;;;;;15.42;83.21;99623.36;127120;1310;114989;-68
2023/07/29 02:06:49;;;;;;;5.30;4.80;;;;;;;15.34;83.41;99623.79;125306;1326;114952;-77
2023/07/29 02:15:14;;;;;;;6.60;4.90;;;;;;;15.29;83.37;99629.21;125887;1301;636609;-78
2023/07/29 02:19:18;;;;;;;7.40;4.90;;;;;;;15.24;83.56;99631.25;128689;1294;129181;-75
2023/07/29 02:23:20;;;;;;;5.30;4.70;;;;;;;15.21;83.58;99629.47;127328;1289;115352;-76
2023/07/29 02:27:28;;;;;;;7.80;5.00;;;;;;;15.17;83.73;99621.88;123150;1292;5485166;-68
2023/07/29 02:31:29;;;;;;;7.30;5.00;;;;;;;15.14;83.69;99620.55;125761;1310;114951;-69
2023/07/29 02:35:30;;;;;;;5.70;4.80;;;;;;;15.10;84.01;99619.72;125668;1322;114977;-80
2023/07/29 02:43:33;;;;;;;6.20;4.70;;;;;;;15.09;84.24;99612.30;125213;1305;115455;-79
2023/07/29 03:00:07;;;;;;;10.80;5.00;;;;;;;14.98;84.52;99614.93;128285;1282;115242;-77
2023/07/29 03:04:07;;;;;;;4.70;4.20;;;;;;;14.95;84.27;99614.64;124360;1282;5476056;-66
2023/07/29 03:08:14;;;;;;;6.00;5.10;;;;;;;14.93;84.52;99611.91;127338;1288;114844;-79
2023/07/29 03:16:06;;;;;;;8.70;5.90;;;;;;;14.94;84.84;99618.54;125628;1322;114820;-71
2023/07/29 03:20:07;;;;;;;10.20;6.20;;;;;;;14.96;85.19;99626.83;125036;1310;129983;-66
2023/07/29 03:28:40;;;;;;;8.50;5.50;;;;;;;15.04;85.29;99631.90;125876;1301;639663;-78
2023/07/29 03:36:52;;;;;;;7.80;5.60;;;;;;;15.11;85.44;99628.34;126559;1296;115276;-73
2023/07/29 03:40:51;;;;;;;8.10;5.70;;;;;;;15.16;85.63;99624.68;122267;1318;5440679;-76
2023/07/29 03:44:52;;;;;;;6.70;6.00;;;;;;;15.24;85.91;99632.17;125060;1310;114878;-75
2023/07/29 03:53:06;;;;;;;7.50;5.40;;;;;;;15.45;86.10;99629.03;126740;1295;635756;-68
2023/07/29 03:57:09;;;;;;;7.00;5.90;;;;;;;15.53;86.49;99630.14;128177;1283;129776;-64
2023/07/29 04:01:13;;;;;;;9.40;6.00;;;;;;;15.62;86.16;99626.52;127661;1283;115246;-74
2023/07/29 04:04:49;;;;;;;;;;;;;;;;;;;;;
2023/07/29 04:08:51;;;;;;;9.80;6.50;;;;;;;15.79;86.06;99630.21;126837;1307;114934;-80
2023/07/29 04:12:47;;;;;;;;;;;;;;;;;;;;;
2023/07/29 04:29:18;;;;;;;7.30;5.90;;;;;;;16.32;86.28;99651.79;126590;1294;635818;-65
2023/07/29 04:37:24;;;;;;;7.20;6.40;;;;;;;16.58;86.65;99660.08;128296;1279;115496;-68
2023/07/29 04:41:26;;;;;;;9.20;6.80;;;;;;;16.68;86.19;99653.14;124335;1279;5449350;-80
2023/07/29 04:45:27;;;;;;;;;;;;;;;;;;;;;
2023/07/29 04:49:29;;;;;;;15.20;6.60;;;;;;;17.07;86.21;99648.92;126324;1295;114999;-78
2023/07/29 05:02:01;;;;;;;8.80;6.80;;;;;;;17.66;85.32;99649.90;125788;1307;638992;-81
2023/07/29 05:06:03;;;;;;;9.30;6.70;;;;;;;17.89;85.19;99648.66;128219;1282;127745;-77
2023/07/29 05:10:15;;;;;;;7.30;6.60;;;;;;;18.13;84.85;99645.64;127228;1289;116379;-67
2023/07/29 05:14:17;;;;;;;7.60;6.10;;;;;;;18.36;84.56;99642.08;123273;1289;5419021;-77
2023/07/29 05:18:20;;;;;;;6.80;5.70;;;;;;;18.75;84.65;99642.27;126585;1306;114887;-71
2023/07/29 05:22:14;;;;;;;7.90;4.90;;;;;;;19.24;84.46;99646.34;125755;1312;115080;-66
2023/07/29 05:26:13;;;;;;;;;;;;;;;;;;;;;
2023/07/29 05:34:09;;;;;;;5.90;4.20;;;;;;;20.98;82.29;99650.75;124883;1329;115018;-73
2023/07/29 05:46:47;;;;;;;9.60;3.30;;;;;;;22.50;79.16;99645.17;125933;1303;638687;-75
2023/07/29 05:50:49;;;;;;;7.10;4.00;;;;;;;22.72;78.39;99644.13;128172;1284;127888;-68
2023/07/29 05:54:32;;;;;;;5.10;3.20;;;;;;;23.15;77.46;99649.52;127056;1308;115557;-79
2023/07/29 05:58:26;;;;;;;4.70;3.00;;;;;;;23.48;76.36;99656.02;122989;1289;5495090;-73
2023/07/29 06:10:12;;;;;;;;;;;;;;;;;;;;;
2023/07/29 06:18:18;;;;;;;4.90;2.40;;;;;;;26.00;71.29;99650.36;126405;1296;635338;-70
2023/07/29 06:22:01;;;;;;;;;;;;;;;;;;;;;
2023/07/29 06:26:06;;;;;;;5.80;2.50;;;;;;;26.43;69.69;99647.73;128668;1278;115240;-69
2023/07/29 06:30:08;;;;;;;4.10;2.00;;;;;;;26.78;68.24;99650.89;128133;1281;114934;-74
2023/07/29 06:34:10;;;;;;;3.00;1.60;;;;;;;27.13;66.88;99650.16;123009;1299;114983;-71
2023/07/29 06:38:12;;;;;;;5.50;2.30;;;;;;;27.62;66.18;99647.70;126098;1298;115105;-71
2023/07/29 06:42:13;;;;;;;4.30;2.10;;;;;;;28.11;64.74;99648.39;125154;1304;114906;-71
2023/07/29 06:45:43;;;;;;;2.20;1.70;;;;;;;28.48;63.43;99651.65;123605;1320;121142;-73
2023/07/29 06:53:55;;;;;;;3.30;1.80;;;;;;;29.21;61.12;99653.20;126507;1292;636174;-73
2023/07/29 06:57:58;;;;;;;3.20;1.60;;;;;;;29.51;60.42;99646.22;127999;1302;120338;-69
2023/07/29 07:01:35;;;;;;;1.70;1.60;;;;;;;29.83;59.22;99638.38;126526;1311;115183;-78
2023/07/29 07:05:31;;;;;;;;;;;;;;;;;;;;;
2023/07/29 07:12:41;;;;;;;2.60;1.50;;;;;;;30.74;56.83;99617.76;126815;1295;114909;-71
2023/07/29 07:20:46;;;;;;;2.40;1.40;;;;;;;31.58;54.46;99621.75;126815;1291;120240;-77
2023/07/29 07:28:21;;;;;;;;;;;;;;;;;;;;;
2023/07/29 07:32:23;;;;;;;2.00;1.70;;;;;;;32.91;52.51;99630.73;125854;1303;115063;-68
2023/07/29 07:36:25;;;;;;;5.10;1.70;;;;;;;33.43;50.73;99631.55;126416;1299;116153;-73
2023/07/29 07:44:28;;;;;;;1.30;1.20;;;;;;;34.14;48.30;99633.58;126161;1298;114794;-67
2023/07/29 07:48:19;;;;;;;;;;;;;;;;;;;;;
2023/07/29 07:56:00;;;;;;;3.20;1.80;;;;;;;35.44;45.74;99622.64;126595;1293;636240;-73
2023/07/29 07:59:44;;;;;;;2.10;1.40;;;;;;;35.46;44.80;99616.61;129321;1269;119490;-77
2023/07/29 08:03:34;;;;;;;1.90;1.50;;;;;;;35.54;43.87;99613.84;129308;1269;114899;-72
2023/07/29 08:07:17;;;;;;;2.90;1.90;;;;;;;35.59;43.57;99605.14;129498;1269;114771;-69
2023/07/29 08:11:10;;;;;;;;;;;;;;;;;;;;;
2023/07/29 08:15:14;;;;;;;2.00;1.20;;;;;;;35.74;42.60;99602.52;128404;1280;114822;-69
2023/07/29 08:18:47;;;;;;;;;;;;;;;;;;;;;
2023/07/29 08:22:34;;;;;;;2.10;1.90;;;;;;;36.08;41.61;99597.52;127712;1286;119338;-80
2023/07/29 08:26:37;;;;;;;2.30;1.80;;;;;;;36.10;41.13;99595.98;127741;1286;114912;-72
2023/07/29 08:30:39;;;;;;;2.10;1.70;;;;;;;35.89;40.18;99590.93;127036;1289;114958;-68
2023/07/29 08:34:03;;;;;;;1.50;1.40;;;;;;;35.41;40.59;99583.59;126330;1295;114951;-78
2023/07/29 08:37:39;;;;;;;;;;;;;;;;;;;;;
2023/07/29 08:41:25;;;;;;;3.40;1.60;;;;;;;35.43;40.45;99564.25;126678;1295;636152;-79
2023/07/29 08:45:19;;;;;;;1.40;1.30;;;;;;;35.58;40.40;99566.23;129293;1267;119794;-76
2023/07/29 08:49:04;;;;;;;;;;;;;;;;;;;;;
2023/07/29 08:52:57;;;;;;;;;;;;;;;;;;;;;
2023/07/29 08:56:53;;;;;;;;;;;;;;;;;;;;;
2023/07/29 09:00:58;;;;;;;;;;;;;;;;;;;;;
2023/07/29 09:05:01;;;;;;;2.00;1.80;;;;;;;34.62;40.07;99551.84;127475;1286;121231;-73
2023/07/29 09:09:02;;;;;;;2.70;1.50;;;;;;;34.39;39.76;99543.38;126811;1292;114859;-72
2023/07/29 09:12:44;;;;;;;1.40;1.20;;;;;;;34.01;39.57;99539.11;126253;1314;114955;-75
2023/07/29 09:16:48;;;;;;;1.10;1.00;;;;;;;33.91;40.11;99542.39;126310;1295;115035;-68
2023/07/29 09:20:49;;;;;;;1.00;1.00;;;;;;;33.88;40.07;99544.65;126051;1317;114855;-72
2023/07/29 09:24:51;;;;;;;3.80;1.50;;;;;;;33.90;39.95;99543.91;125521;1304;121033;-68
2023/07/29 09:28:55;;;;;;;1.70;1.10;;;;;;;33.75;40.02;99542.39;125774;1305;114980;-72
2023/07/29 09:32:48;;;;;;;;;;;;;;;;;;;;;
2023/07/29 09:49:10;;;;;;;;;;;;;;;;;;;;;
2023/07/29 09:53:15;;;;;;;1.80;1.20;;;;;;;33.09;40.01;99533.03;128623;1275;120071;-66
2023/07/29 09:57:17;;;;;;;1.50;1.40;;;;;;;32.94;40.23;99530.55;128113;1277;114905;-67
2023/07/29 10:05:26;;;;;;;4.70;1.20;;;;;;;32.60;40.31;99523.73;127063;1308;114829;-64
2023/07/29 10:16:51;;;;;;;;;;;;;;;;;;;;;
2023/07/29 10:20:42;;;;;;;;;;;;;;;;;;;;;
2023/07/29 10:29:26;;;;;;;2.00;1.30;;;;;;;31.84;40.89;99528.40;125755;1304;644247;-63
2023/07/29 10:33:18;;;;;;;;;;;;;;;;;;;;;
2023/07/29 10:37:14;;;;;;;2.50;1.30;;;;;;;31.62;41.91;99518.05;128837;1277;114938;-66
2023/07/29 10:45:26;;;;;;;2.20;2.10;;;;;;;31.24;41.43;99507.38;128073;1283;114843;-64
2023/07/29 10:49:35;;;;;;;2.40;1.60;;;;;;;31.08;41.86;99505.81;127814;1289;114895;-65
2023/07/29 10:53:21;;;;;;;;;;;;;;;;;;;;;
2023/07/29 10:57:36;;;;;;;2.10;2.00;;;;;;;31.28;42.79;99485.54;127394;1289;114901;-64
2023/07/29 11:01:27;;;;;;;;;;;;;;;;;;;;;
2023/07/29 11:09:31;;;;;;;4.00;2.30;;;;;;;31.51;42.01;99473.17;125284;1319;114981;-65
2023/07/29 11:13:15;;;;;;;6.90;2.00;;;;;;;31.41;41.79;99468.41;124998;1319;121201;-64
2023/07/29 11:21:06;;;;;;;;;;;;;;;;;;;;;
2023/07/29 11:24:48;;;;;;;2.80;2.40;;;;;;;30.83;42.11;99448.91;125243;1303;114928;-66
2023/07/29 11:28:51;;;;;;;2.20;2.10;;;;;;;30.68;42.77;99442.54;125362;1301;114849;-63
2023/07/29 11:36:02;;;;;;;;;;;;;;;;;;;;;
2023/07/29 11:40:01;;;;;;;2.50;2.30;;;;;;;30.70;42.22;99436.09;123815;1325;114949;-66
2023/07/29 11:43:42;;;;;;;4.60;2.10;;;;;;;30.62;42.39;99430.81;125047;1319;114945;-65
2023/07/29 11:47:43;;;;;;;2.10;1.90;;;;;;;30.59;42.12;99420.98;125019;1317;115192;-62
2023/07/29 11:51:36;;;;;;;;;;;;;;;;;;;;;
2023/07/29 11:55:07;;;;;;;4.00;2.10;;;;;;;30.70;42.48;99415.48;124823;1311;114935;-66
2023/07/29 11:58:48;;;;;;;;;;;;;;;;;;;;;
2023/07/29 12:02:14;;;;;;;5.30;2.20;;;;;;;30.70;42.61;99413.40;125410;1297;115005;-65
2023/07/29 12:06:08;;;;;;;;;;;;;;;;;;;;;
2023/07/29 12:09:40;;;;;;;;;;;;;;;;;;;;;
2023/07/29 12:13:22;;;;;;;2.50;1.70;;;;;;;30.87;42.49;99408.05;125719;1296;114941;-62
2023/07/29 12:16:34;;;;;;;3.20;1.70;;;;;;;30.89;42.04;99408.59;129996;1297;113017;-63
2023/07/29 12:20:17;;;;;;;4.60;2.00;;;;;;;30.95;42.32;99405.27;130289;1290;112934;-65
2023/07/29 12:23:37;;;;;;;2.20;1.10;;;;;;;31.15;42.36;99409.34;130691;1290;112683;-62
2023/07/29 12:27:29;;;;;;;;;;;;;;;;;;;;;
2023/07/29 12:35:02;;;;;;;3.10;2.30;;;;;;;31.31;40.56;99401.11;126200;1293;636195;-63
2023/07/29 12:39:09;;;;;;;2.30;2.00;;;;;;;31.25;40.87;99401.67;129008;1270;120258;-63
2023/07/29 12:42:43;;;;;;;4.60;2.00;;;;;;;31.12;40.64;99399.32;129165;1272;114876;-63
2023/07/29 12:46:47;;;;;;;3.60;1.70;;;;;;;30.97;40.53;99391.80;128611;1293;114814;-63
2023/07/29 12:50:31;;;;;;;1.20;1.10;;;;;;;30.76;40.31;99387.82;125675;1284;114864;-65
2023/07/29 12:54:20;;;;;;;2.80;1.20;;;;;;;30.63;40.03;99384.49;127170;1290;115342;-63
2023/07/29 12:58:23;;;;;;;1.80;1.50;;;;;;;30.52;40.11;99375.50;127432;1288;114812;-61
2023/07/29 13:02:00;;;;;;;;;;;;;;;;;;;;;
2023/07/29 13:05:57;;;;;;;4.60;2.30;;;;;;;30.53;40.64;99375.95;125832;1299;116210;-62
2023/07/29 13:09:59;;;;;;;1.40;1.30;;;;;;;30.57;40.86;99371.55;125645;1311;114923;-63
2023/07/29 13:14:01;;;;;;;4.20;0.90;;;;;;;30.60;40.43;99370.99;125545;1302;114958;-64
2023/07/29 13:18:02;;;;;;;2.30;2.10;;;;;;;30.65;40.59;99368.86;125007;1312;115022;-62
2023/07/29 13:22:04;;;;;;;3.00;1.30;;;;;;;30.68;40.59;99369.84;124847;1310;121543;-62
2023/07/29 13:26:05;;;;;;;1.70;1.60;;;;;;;30.61;40.44;99373.96;124227;1313;114971;-63
2023/07/29 13:30:06;;;;;;;3.80;3.00;;;;;;;30.63;40.75;99369.46;124084;1315;114997;-62
2023/07/29 13:37:50;;;;;;;1.50;1.20;;;;;;;30.89;40.52;99368.59;125789;1310;635967;-62
2023/07/29 13:41:53;;;;;;;1.90;1.20;;;;;;;30.94;40.29;99366.86;128584;1276;120194;-63
2023/07/29 13:45:56;;;;;;;1.00;1.00;;;;;;;30.99;40.00;99361.90;128127;1270;114832;-64
2023/07/29 13:49:59;;;;;;;1.90;1.70;;;;;;;30.99;40.24;99361.81;127214;1286;114793;-63
2023/07/29 13:54:02;;;;;;;2.00;1.30;;;;;;;31.03;40.09;99356.91;122150;1293;114840;-63
2023/07/29 13:58:03;;;;;;;1.30;1.10;;;;;;;31.08;40.28;99356.11;125619;1305;115018;-63
2023/07/29 14:01:54;;;;;;;1.20;0.90;;;;;;;31.20;40.22;99355.45;124660;1305;114872;-64
2023/07/29 14:10:16;;;;;;;3.40;1.20;;;;;;;31.39;40.32;99337.41;126257;1295;636798;-63
2023/07/29 14:13:38;;;;;;;;;;;;;;;;;;;;;
2023/07/29 14:17:22;;;;;;;0.80;0.80;;;;;;;31.21;40.08;99327.23;127460;1286;114842;-64
2023/07/29 14:21:15;;;;;;;;;;;;;;;;;;;;;
2023/07/29 14:29:21;;;;;;;;;;;;;;;;;;;;;
2023/07/29 14:33:35;;;;;;;1.10;1.00;;;;;;;30.28;40.34;99308.59;126783;1288;114963;-62
2023/07/29 14:37:37;;;;;;;0.90;0.90;;;;;;;30.08;40.44;99298.39;126237;1307;120072;-64
2023/07/29 14:41:28;;;;;;;2.70;1.60;;;;;;;30.04;40.87;99285.55;125634;1301;114801;-64
2023/07/29 14:45:29;;;;;;;1.10;1.00;;;;;;;30.09;41.21;99286.88;125104;1317;114889;-63
2023/07/29 15:01:55;;;;;;;1.80;1.10;;;;;;;29.72;41.25;99273.45;127763;1284;120251;-62
2023/07/29 15:05:58;;;;;;;;;;;;;;;;;;;;;
2023/07/29 15:09:06;;;;;;;3.90;1.30;;;;;;;29.40;41.40;99269.23;125733;1298;562890;-60
2023/07/29 15:12:51;;;;;;;2.90;1.80;;;;;;;29.30;41.58;99278.14;126331;1290;114847;-60
2023/07/29 15:16:37;;;;;;;;;;;;;;;;;;;;;
2023/07/29 15:20:53;;;;;;;;;;;;;;;;;;;;;
2023/07/29 15:29:08;;;;;;;1.60;1.50;;;;;;;29.05;42.47;99286.00;126365;1293;636105;-63
2023/07/29 15:32:32;;;;;;;;;;;;;;;;;;;;;
2023/07/29 15:35:54;;;;;;;;;;;;;;;;;;;;;
2023/07/29 15:39:31;;;;;;;;;;;;;;;;;;;;;
2023/07/29 15:42:54;;;;;;;1.20;1.10;;;;;;;28.98;42.81;99290.45;127989;1287;376853;-64
2023/07/29 15:46:26;;;;;;;;;;;;;;;;;;;;;
2023/07/29 15:49:41;;;;;;;1.80;1.40;;;;;;;28.88;43.25;99289.68;128455;1278;120406;-64
2023/07/29 15:53:12;;;;;;;;;;;;;;;28.77;43.25;99291.94;128326;1278;114861;-63
2023/07/29 15:57:15;;;;;;;3.50;1.60;;;;;;;28.64;43.18;99293.59;127726;1284;115153;-76
2023/07/29 16:01:03;;;;;;;;;;;;;;;;;;;;;
2023/07/29 16:04:56;;;;;;;2.00;1.40;;;;;;;28.28;43.56;99291.20;126648;1311;114850;-75
2023/07/29 16:09:05;;;;;;;2.00;1.40;;;;;;;28.09;43.80;99296.88;126747;1292;120388;-72
2023/07/29 16:12:53;;;;;;;2.20;1.30;;;;;;;27.87;44.11;99300.34;126237;1299;114971;-76
2023/07/29 16:16:38;;;;;;;2.40;1.60;;;;;;;27.71;44.54;99306.20;125674;1302;114789;-73
2023/07/29 16:24:24;;;;;;;3.30;1.60;;;;;;;27.50;45.30;99316.08;126626;1295;636171;-66
2023/07/29 16:28:02;;;;;;;;;;;;;;;;;;;;;
2023/07/29 16:31:21;;;;;;;2.20;1.60;;;;;;;27.32;45.70;99321.00;129417;1266;114891;-67
2023/07/29 16:35:25;;;;;;;2.80;1.30;;;;;;;27.32;46.07;99321.16;129166;1270;114869;-68
2023/07/29 16:38:58;;;;;;;3.60;1.90;;;;;;;27.42;46.73;99321.89;124951;1276;5431119;-67
2023/07/29 16:42:31;;;;;;;;;;;;;;;;;;;;;
2023/07/29 16:46:06;;;;;;;3.20;1.40;;;;;;;27.67;46.64;99320.15;128792;1273;114852;-68
2023/07/29 16:49:48;;;;;;;2.00;1.70;;;;;;;27.75;46.66;99323.06;128817;1276;119391;-69
2023/07/29 16:53:53;;;;;;;1.20;1.10;;;;;;;27.75;46.35;99321.15;128913;1276;114777;-69
2023/07/29 16:57:42;;;;;;;;;;;;;;;;;;;;;
2023/07/29 17:00:45;;;;;;;1.80;1.40;;;;;;;27.52;45.68;99322.01;128137;1277;114865;-65
2023/07/29 17:04:37;;;;;;;1.20;1.10;;;;;;;27.39;45.65;99319.73;127842;1283;114948;-66
2023/07/29 17:08:24;;;;;;;2.80;1.20;;;;;;;27.25;45.85;99321.54;127475;1283;119362;-64
2023/07/29 17:11:46;;;;;;;;;;;;;;;;;;;;;
2023/07/29 17:15:21;;;;;;;;;;;;;;;;;;;;;
2023/07/29 17:19:10;;;;;;;1.40;1.20;;;;;;;26.74;46.08;99319.04;128114;1280;116442;-66
2023/07/29 17:23:14;;;;;;;3.50;1.20;;;;;;;26.60;46.20;99313.65;127576;1301;114944;-66
2023/07/29 17:27:14;;;;;;;1.30;1.20;;;;;;;26.47;46.68;99310.21;127221;1287;121338;-70
2023/07/29 17:31:04;;;;;;;1.80;1.30;;;;;;;26.34;47.03;99314.34;126444;1295;114830;-67
2023/07/29 17:34:44;;;;;;;1.90;1.20;;;;;;;26.19;47.36;99314.39;126381;1293;114948;-70
2023/07/29 17:38:47;;;;;;;1.40;1.20;;;;;;;26.05;47.41;99313.88;125804;1298;114930;-65
2023/07/29 17:42:39;;;;;;;2.30;1.10;;;;;;;25.90;47.72;99310.09;125731;1321;115184;-64
2023/07/29 17:45:52;;;;;;;1.10;1.00;;;;;;;25.77;47.90;99320.39;125310;1304;121209;-65
2023/07/29 17:49:24;;;;;;;3.50;1.10;;;;;;;25.67;48.27;99327.53;125294;1300;114942;-62
2023/07/29 17:52:48;;;;;;;1.60;1.30;;;;;;;25.57;48.65;99333.52;125535;1317;114875;-62
2023/07/29 17:55:54;;;;;;;2.00;1.20;;;;;;;25.47;48.86;99335.86;126203;1295;114901;-68
2023/07/29 17:59:35;;;;;;;2.80;1.80;;;;;;;25.39;48.92;99339.14;126435;1290;114824;-65
2023/07/29 18:03:06;;;;;;;6.90;1.70;;;;;;;25.31;49.24;99341.96;127382;1281;121655;-71
2023/07/29 18:07:12;;;;;;;;;;;;;;;;;;;;;
2023/07/29 18:11:03;;;;;;;;;;;;;;;;;;;;;
2023/07/29 18:15:05;;;;;;;1.20;1.10;;;;;;;25.00;50.19;99356.10;125911;1317;114873;-65
2023/07/29 18:19:07;;;;;;;4.00;1.30;;;;;;;24.83;50.40;99371.45;124961;1309;114966;-66
2023/07/29 18:23:04;;;;;;;;;;;;;;;;;;;;;
2023/07/29 18:26:56;;;;;;;;;;;;;;;;;;;;;
2023/07/29 18:35:53;;;;;;;1.40;1.30;;;;;;;24.13;51.57;99385.88;125923;1301;638512;-71
2023/07/29 18:39:38;;;;;;;2.70;1.40;;;;;;;23.97;52.01;99396.05;127905;1301;127854;-74
2023/07/29 18:43:29;;;;;;;;;;;;;;;;;;;;;
2023/07/29 18:47:22;;;;;;;7.40;1.70;;;;;;;23.67;52.86;99390.63;123777;1289;5435223;-78
2023/07/29 18:51:16;;;;;;;;;;;;;;;;;;;;;
2023/07/29 18:55:22;;;;;;;2.50;1.60;;;;;;;23.38;53.28;99390.72;126709;1293;114869;-72
2023/07/29 18:59:13;;;;;;;;;;;;;;;;;;;;;
2023/07/29 19:07:48;;;;;;;2.40;2.00;;;;;;;23.01;53.70;99404.42;126050;1298;639426;-71
2023/07/29 19:11:51;;;;;;;1.70;1.60;;;;;;;22.84;54.18;99399.05;128638;1297;128916;-76
2023/07/29 19:15:52;;;;;;;;;;;;;;;;;;;;;
2023/07/29 19:28:04;;;;;;;3.20;2.00;;;;;;;22.57;55.26;99424.36;125955;1300;636111;-68
2023/07/29 19:31:32;;;;;;;2.10;1.50;;;;;;;22.52;55.71;99447.55;128749;1274;128815;-66
2023/07/29 19:35:36;;;;;;;2.90;1.70;;;;;;;22.48;55.75;99468.13;128363;1273;115231;-67
2023/07/29 19:39:39;;;;;;;5.80;1.80;;;;;;;22.42;55.79;99471.33;127840;1282;114916;-67
2023/07/29 19:43:23;;;;;;;4.00;1.80;;;;;;;22.37;56.19;99475.81;122803;1296;115146;-65
2023/07/29 19:47:13;;;;;;;12.30;2.10;;;;;;;22.34;56.29;99478.24;126084;1298;115416;-66
2023/07/29 19:50:54;;;;;;;5.10;2.10;;;;;;;22.27;56.63;99481.66;125774;1314;114972;-67
2023/07/29 19:54:54;;;;;;;;;;;;;;;;;;;;;
2023/07/29 19:58:41;;;;;;;1.60;1.50;;;;;;;22.12;56.46;99470.13;125081;1320;116389;-64
2023/07/29 20:02:32;;;;;;;;;;;;;;;;;;;;;
2023/07/29 20:06:14;;;;;;;;;;;;;;;;;;;;;
2023/07/29 20:10:10;;;;;;;4.40;1.80;;;;;;;21.89;57.01;99468.30;124712;1329;114937;-68
2023/07/29 20:14:11;;;;;;;1.40;1.30;;;;;;;21.80;57.31;99474.83;123927;1335;128218;-69
2023/07/29 20:22:02;;;;;;;3.60;1.50;;;;;;;21.61;57.92;99480.02;126661;1295;636577;-67
2023/07/29 20:26:05;;;;;;;2.00;1.50;;;;;;;21.53;58.20;99493.62;128569;1276;127872;-72
2023/07/29 20:29:58;;;;;;;4.00;1.80;;;;;;;21.46;58.35;99517.48;127693;1287;116461;-70
2023/07/29 20:34:24;;;;;;;3.70;1.40;;;;;;;21.39;58.55;99519.41;127195;1287;114952;-73
2023/07/29 20:38:01;;;;;;;4.30;1.40;;;;;;;21.37;58.24;99514.36;122241;1302;114864;-75
2023/07/29 20:41:52;;;;;;;2.70;1.40;;;;;;;21.38;59.09;99507.52;125517;1307;114957;-66
2023/07/29 20:45:53;;;;;;;1.80;1.50;;;;;;;21.37;59.81;99504.95;124813;1310;115032;-68
2023/07/29 20:49:53;;;;;;;;;;;;;;;;;;;;;
2023/07/29 20:54:16;;;;;;;1.60;1.20;;;;;;;21.26;61.48;99517.42;126579;1297;635802;-73
2023/07/29 20:57:47;;;;;;;;;;;;;;;;;;;;;
2023/07/29 21:01:41;;;;;;;;;;;;;;;;;;;;;
2023/07/29 21:05:45;;;;;;;6.40;1.80;;;;;;;20.88;63.49;99507.61;126971;1305;114764;-65
2023/07/29 21:09:52;;;;;;;3.30;1.80;;;;;;;20.70;64.16;99509.45;122265;1300;115016;-66
2023/07/29 21:13:53;;;;;;;6.00;2.10;;;;;;;20.52;64.55;99508.56;124512;1312;114985;-68
2023/07/29 21:21:46;;;;;;;3.70;1.80;;;;;;;20.28;65.63;99512.75;126205;1295;635078;-65
2023/07/29 21:25:13;;;;;;;2.20;2.00;;;;;;;20.14;66.24;99530.03;129410;1266;128804;-66
2023/07/29 21:28:50;;;;;;;;;;;;;;;;;;;;;
2023/07/29 21:32:54;;;;;;;4.00;2.40;;;;;;;19.90;67.38;99536.27;128836;1275;115216;-65
2023/07/29 21:36:54;;;;;;;;;;;;;;;;;;;;;
2023/07/29 21:44:48;;;;;;;;;;;;;;;;;;;;;
2023/07/29 21:48:51;;;;;;;3.50;1.90;;;;;;;19.41;69.52;99539.45;125676;1302;130212;-66
2023/07/29 21:57:15;;;;;;;3.50;1.80;;;;;;;19.23;70.17;99548.30;126471;1295;636404;-67
2023/07/29 22:01:17;;;;;;;6.80;2.00;;;;;;;19.13;70.40;99556.90;127816;1293;130078;-66
2023/07/29 22:09:21;;;;;;;6.30;3.50;;;;;;;18.92;71.32;99555.67;122384;1299;5422178;-67
2023/07/29 22:17:21;;;;;;;5.00;3.00;;;;;;;18.73;71.94;99569.79;124992;1318;114879;-66
2023/07/29 22:21:11;;;;;;;;;;;;;;;;;;;;;
2023/07/29 22:25:13;;;;;;;4.00;2.70;;;;;;;18.55;72.81;99580.17;124156;1327;129991;-64
2023/07/29 22:33:34;;;;;;;8.70;3.20;;;;;;;18.39;73.37;99570.57;126312;1295;635756;-66
2023/07/29 22:37:30;;;;;;;3.10;2.50;;;;;;;18.27;73.60;99570.10;129098;1267;127602;-64
2023/07/29 22:41:33;;;;;;;6.50;2.10;;;;;;;18.16;73.81;99569.69;129041;1267;115173;-66
2023/07/29 22:45:35;;;;;;;4.80;2.20;;;;;;;18.03;74.08;99568.65;123743;1286;5427153;-64
2023/07/29 23:02:06;;;;;;;5.90;2.60;;;;;;;17.59;74.82;99580.08;126493;1291;637351;-66
2023/07/29 23:06:09;;;;;;;5.40;2.80;;;;;;;17.47;75.16;99582.81;127985;1280;128858;-66
2023/07/29 23:10:12;;;;;;;5.40;3.20;;;;;;;17.36;75.23;99578.33;128322;1295;115266;-65
2023/07/29 23:14:11;;;;;;;;;;;;;;;;;;;;;
2023/07/29 23:26:31;;;;;;;5.70;4.20;;;;;;;16.99;76.43;99576.92;126315;1295;114820;-66
2023/07/29 23:34:37;;;;;;;9.70;4.70;;;;;;;16.85;77.01;99583.85;126257;1296;635774;-66
2023/07/29 23:42:43;;;;;;;7.30;4.90;;;;;;;16.70;77.27;99581.19;129892;1260;115212;-66
2023/07/29 23:54:59;;;;;;;7.80;4.40;;;;;;;16.47;77.84;99589.83;127967;1297;114828;-66
2023/07/29 23:59:01;;;;;;;8.40;4.80;;;;;;;16.40;78.07;99592.58;126731;1309;129975;-67
